createdAt,value
2018-05-03T00:03:07.556Z,8.2
2018-05-03T00:08:07.032Z,8.2
2018-05-03T00:13:07.346Z,8.2
2018-05-03T00:18:07.601Z,8.2
2018-05-03T00:23:06.779Z,8.3
2018-05-03T00:28:07.334Z,8.3
2018-05-03T00:33:07.612Z,8.3
2018-05-03T00:38:06.758Z,8.3
2018-05-03T00:43:07.269Z,8.3
2018-05-03T00:48:07.549Z,8.3
2018-05-03T00:53:07.013Z,8.4
2018-05-03T00:58:07.364Z,8.4
2018-05-03T01:03:07.172Z,8.4
2018-05-03T01:08:07.009Z,8.4
2018-05-03T01:13:07.227Z,8.4
2018-05-03T01:18:07.290Z,8.4
2018-05-03T01:23:07.283Z,8.3
2018-05-03T01:28:07.477Z,8.3
2018-05-03T01:33:07.683Z,8.3
2018-05-03T01:38:07.294Z,8.3
2018-05-03T01:43:07.278Z,8.2
2018-05-03T01:48:07.430Z,8.2
2018-05-03T01:53:07.263Z,8.2
2018-05-03T01:58:07.375Z,8.2
2018-05-03T02:03:07.502Z,8.1
2018-05-03T02:08:07.858Z,8.1
2018-05-03T02:13:07.132Z,7.9
2018-05-03T02:18:07.448Z,7.9
2018-05-03T02:23:07.225Z,7.8
2018-05-03T02:28:07.492Z,7.8
2018-05-03T02:33:07.692Z,7.6
2018-05-03T02:38:07.002Z,7.6
2018-05-03T02:43:07.215Z,7.4
2018-05-03T02:48:07.370Z,7.4
2018-05-03T02:53:07.571Z,7.3
2018-05-03T02:58:07.198Z,7.3
2018-05-03T03:03:07.238Z,7.1
2018-05-03T03:08:07.619Z,7.1
2018-05-03T03:13:07.421Z,6.9
2018-05-03T03:18:07.715Z,6.9
2018-05-03T03:23:07.246Z,6.8
2018-05-03T03:28:07.539Z,6.8
2018-05-03T03:33:07.622Z,6.7
2018-05-03T03:38:07.938Z,6.7
2018-05-03T03:43:07.487Z,6.6
2018-05-03T03:48:07.737Z,6.6
2018-05-03T03:53:07.322Z,6.4
2018-05-03T03:58:07.507Z,6.4
2018-05-03T04:03:07.385Z,6.3
2018-05-03T04:08:07.135Z,6.3
2018-05-03T04:13:07.252Z,6.2
2018-05-03T04:18:07.634Z,6.2
2018-05-03T04:23:07.772Z,6.1
2018-05-03T04:28:07.514Z,6.1
2018-05-03T04:33:07.414Z,6
2018-05-03T04:38:07.646Z,6
2018-05-03T04:43:07.878Z,5.9
2018-05-03T04:48:07.093Z,5.9
2018-05-03T04:53:07.023Z,5.9
2018-05-03T04:58:07.128Z,5.9
2018-05-03T05:03:07.485Z,6.1
2018-05-03T05:08:07.191Z,6.1
2018-05-03T05:13:07.297Z,6.4
2018-05-03T05:18:07.582Z,6.4
2018-05-03T05:23:07.247Z,7
2018-05-03T05:28:07.417Z,7
2018-05-03T05:33:07.877Z,7.8
2018-05-03T05:38:07.614Z,7.8
2018-05-03T05:43:07.931Z,8.7
2018-05-03T05:48:07.174Z,8.7
2018-05-03T05:53:07.310Z,9.4
2018-05-03T05:58:07.524Z,9.4
2018-05-03T06:03:07.770Z,9.9
2018-05-03T06:08:07.438Z,9.9
2018-05-03T06:13:07.851Z,10.3
2018-05-03T06:18:07.720Z,10.3
2018-05-03T06:23:07.608Z,10.7
2018-05-03T06:28:07.900Z,10.7
2018-05-03T06:33:08.246Z,11
2018-05-03T06:38:07.471Z,11
2018-05-03T06:43:07.711Z,11.2
2018-05-03T06:48:08.097Z,11.2
2018-05-03T06:53:07.434Z,11.4
2018-05-03T06:58:07.641Z,11.4
2018-05-03T07:03:07.926Z,11.6
2018-05-03T07:08:07.970Z,11.6
2018-05-03T07:13:07.702Z,11.9
2018-05-03T07:18:07.943Z,11.9
2018-05-03T07:23:08.154Z,12.2
2018-05-03T07:28:07.779Z,12.2
2018-05-03T07:33:08.168Z,12.7
2018-05-03T07:38:07.358Z,12.7
2018-05-03T07:43:07.539Z,13.1
2018-05-03T07:48:07.862Z,13.1
2018-05-03T07:53:08.181Z,13.2
2018-05-03T07:58:07.422Z,13.2
2018-05-03T08:03:07.407Z,13.5
2018-05-03T08:08:07.537Z,13.5
2018-05-03T08:13:07.572Z,13.8
2018-05-03T08:18:07.820Z,13.8
2018-05-03T08:23:08.228Z,14.1
2018-05-03T08:28:07.514Z,14.1
2018-05-03T08:33:07.852Z,14.2
2018-05-03T08:38:08.015Z,14.2
2018-05-03T08:43:07.311Z,14.4
2018-05-03T08:48:07.535Z,14.4
2018-05-03T08:53:07.756Z,14.6
2018-05-03T08:58:07.956Z,14.6
2018-05-03T09:03:08.174Z,14.6
2018-05-03T09:08:07.352Z,14.6
2018-05-03T09:13:07.588Z,14.9
2018-05-03T09:18:07.959Z,14.9
2018-05-03T09:23:07.418Z,15
2018-05-03T09:28:07.575Z,15
2018-05-03T09:33:08.053Z,15.4
2018-05-03T09:38:07.573Z,15.4
2018-05-03T09:43:07.991Z,15.7
2018-05-03T09:48:08.311Z,15.7
2018-05-03T09:53:07.468Z,15.5
2018-05-03T09:58:07.743Z,15.5
2018-05-03T10:03:08.341Z,15.7
2018-05-03T10:08:07.535Z,15.7
2018-05-03T10:13:08.194Z,15.9
2018-05-03T10:18:07.497Z,15.9
2018-05-03T10:23:07.635Z,16.3
2018-05-03T10:28:07.716Z,16.3
2018-05-03T10:33:07.930Z,16.4
2018-05-03T10:38:07.958Z,16.4
2018-05-03T10:43:08.333Z,16.8
2018-05-03T10:48:08.127Z,16.8
2018-05-03T10:53:08.351Z,16.8
2018-05-03T10:58:07.741Z,16.8
2018-05-03T11:03:08.234Z,17.1
2018-05-03T11:08:07.971Z,17.1
2018-05-03T11:13:08.314Z,17.2
2018-05-03T11:18:07.568Z,17.2
2018-05-03T11:23:07.776Z,17.3
2018-05-03T11:28:07.557Z,17.3
2018-05-03T11:33:07.708Z,17.3
2018-05-03T11:38:08.102Z,17.3
2018-05-03T11:43:08.032Z,16.9
2018-05-03T11:48:08.348Z,16.9
2018-05-03T11:53:08.427Z,17.2
2018-05-03T11:58:07.765Z,17.2
2018-05-03T12:03:08.230Z,16.5
2018-05-03T12:08:08.517Z,16.5
2018-05-03T12:13:07.713Z,16.1
2018-05-03T12:18:07.920Z,16.1
2018-05-03T12:23:08.114Z,16.2
2018-05-03T12:28:08.484Z,16.2
2018-05-03T12:33:08.011Z,15.9
2018-05-03T12:38:08.577Z,15.9
2018-05-03T12:43:07.781Z,16.6
2018-05-03T12:48:07.934Z,16.6
2018-05-03T12:53:08.103Z,17.1
2018-05-03T12:58:08.340Z,17.1
2018-05-03T13:03:07.777Z,17.3
2018-05-03T13:08:08.217Z,17.3
2018-05-03T13:13:08.002Z,17.1
2018-05-03T13:18:08.653Z,17.1
2018-05-03T13:23:07.908Z,17.3
2018-05-03T13:28:07.676Z,17.3
2018-05-03T13:33:08.069Z,16.8
2018-05-03T13:38:08.389Z,16.8
2018-05-03T13:43:08.342Z,16.5
2018-05-03T13:48:07.693Z,16.5
2018-05-03T13:53:08.341Z,16.8
2018-05-03T13:58:07.663Z,16.8
2018-05-03T14:03:08.234Z,17.2
2018-05-03T14:08:08.111Z,17.2
2018-05-03T14:13:07.725Z,17.2
2018-05-03T14:18:07.998Z,17.2
2018-05-03T14:23:08.378Z,17.3
2018-05-03T14:28:08.751Z,17.3
2018-05-03T14:33:08.092Z,17.2
2018-05-03T14:38:08.364Z,17.2
2018-05-03T14:43:08.637Z,17.1
2018-05-03T14:48:07.876Z,17.1
2018-05-03T14:53:08.273Z,16.9
2018-05-03T14:58:08.534Z,16.9
2018-05-03T15:03:07.871Z,16.5
2018-05-03T15:08:08.229Z,16.5
2018-05-03T15:13:08.562Z,16.4
2018-05-03T15:18:08.060Z,16.4
2018-05-03T15:23:08.415Z,16.4
2018-05-03T15:28:08.624Z,16.4
2018-05-03T15:33:07.910Z,16.3
2018-05-03T15:38:08.229Z,16.3
2018-05-03T15:43:07.958Z,16.3
2018-05-03T15:48:08.521Z,16.3
2018-05-03T15:53:08.820Z,16.1
2018-05-03T15:58:08.192Z,16.1
2018-05-03T16:03:08.091Z,16
2018-05-03T16:08:08.339Z,16
2018-05-03T16:13:08.599Z,16.1
2018-05-03T16:18:07.982Z,16.1
2018-05-03T16:23:08.257Z,15.8
2018-05-03T16:28:08.641Z,15.8
2018-05-03T16:33:08.019Z,15.3
2018-05-03T16:38:08.366Z,15.3
2018-05-03T16:43:08.124Z,14.9
2018-05-03T16:48:08.525Z,14.9
2018-05-03T16:53:07.843Z,14.7
2018-05-03T16:58:08.286Z,14.7
2018-05-03T17:03:08.490Z,14.4
2018-05-03T17:08:08.754Z,14.4
2018-05-03T17:13:07.930Z,14.2
2018-05-03T17:18:08.292Z,14.2
2018-05-03T17:23:08.677Z,14
2018-05-03T17:28:07.947Z,14
2018-05-03T17:33:08.264Z,13.8
2018-05-03T17:38:08.556Z,13.8
2018-05-03T17:43:08.964Z,13.7
2018-05-03T17:48:08.606Z,13.7
2018-05-03T17:53:07.982Z,13.5
2018-05-03T17:58:08.393Z,13.5
2018-05-03T18:03:08.896Z,13.3
2018-05-03T18:08:08.474Z,13.3
2018-05-03T18:13:07.967Z,13.1
2018-05-03T18:18:08.387Z,13.1
2018-05-03T18:23:08.697Z,12.9
2018-05-03T18:28:08.972Z,12.9
2018-05-03T18:33:08.337Z,12.6
2018-05-03T18:38:08.029Z,12.6
2018-05-03T18:43:08.514Z,12.3
2018-05-03T18:48:09.019Z,12.3
2018-05-03T18:53:08.384Z,12.1
2018-05-03T18:58:08.623Z,12.1
2018-05-03T19:03:09.043Z,11.8
2018-05-03T19:08:08.381Z,11.8
2018-05-03T19:13:08.737Z,11.6
2018-05-03T19:18:09.027Z,11.6
2018-05-03T19:23:08.491Z,11.3
2018-05-03T19:28:09.037Z,11.3
2018-05-03T19:33:08.392Z,10.9
2018-05-03T19:38:08.836Z,10.9
2018-05-03T19:43:08.170Z,10.6
2018-05-03T19:48:08.440Z,10.6
2018-05-03T19:53:08.791Z,10.3
2018-05-03T19:58:08.143Z,10.3
2018-05-03T20:03:08.687Z,9.9
2018-05-03T20:08:09.042Z,9.9
2018-05-03T20:13:08.985Z,9.7
2018-05-03T20:18:08.464Z,9.7
2018-05-03T20:23:09.081Z,9.3
2018-05-03T20:28:08.312Z,9.3
2018-05-03T20:33:08.780Z,9.1
2018-05-03T20:38:08.569Z,9.1
2018-05-03T20:43:08.885Z,8.8
2018-05-03T20:48:08.523Z,8.8
2018-05-03T20:53:08.790Z,8.4
2018-05-03T20:58:08.269Z,8.4
2018-05-03T21:03:08.542Z,8.2
2018-05-03T21:08:08.847Z,8.2
2018-05-03T21:13:08.432Z,8
2018-05-03T21:18:08.813Z,8
2018-05-03T21:23:09.063Z,7.8
2018-05-03T21:28:08.402Z,7.8
2018-05-03T21:33:08.803Z,7.5
2018-05-03T21:38:09.099Z,7.5
2018-05-03T21:43:08.392Z,7.3
2018-05-03T21:48:08.746Z,7.3
2018-05-03T21:53:09.204Z,7
2018-05-03T21:58:08.514Z,7
2018-05-03T22:03:09.220Z,6.8
2018-05-03T22:08:08.552Z,6.8
2018-05-03T22:13:08.989Z,6.6
2018-05-03T22:18:08.272Z,6.6
2018-05-03T22:23:08.487Z,6.3
2018-05-03T22:28:08.730Z,6.3
2018-05-03T22:33:09.042Z,6.1
2018-05-03T22:38:08.421Z,6.1
2018-05-03T22:43:08.279Z,5.9
2018-05-03T22:48:08.587Z,5.9
2018-05-03T22:53:08.931Z,5.7
2018-05-03T22:58:09.223Z,5.7
2018-05-03T23:03:08.682Z,5.5
2018-05-03T23:08:09.053Z,5.5
2018-05-03T23:13:08.496Z,5.3
2018-05-03T23:18:08.497Z,5.3
2018-05-03T23:23:08.688Z,5.2
2018-05-03T23:28:09.138Z,5.2
2018-05-03T23:33:08.510Z,5
2018-05-03T23:38:08.761Z,5
2018-05-03T23:43:09.138Z,4.8
2018-05-03T23:48:08.595Z,4.8
2018-05-03T23:53:08.930Z,4.7
2018-05-03T23:58:09.231Z,4.7
